Time;durP1;ratioP1;P1;durP2;ratioP2;P2;SDS_P1;SDS_P2;PMS_P1;PMS_P2;Temp;Humidity;BMP_temperature;BMP_pressure;BME280_temperature;BME280_humidity;BME280_pressure;Samples;Min_cycle;Max_cycle;Signal;HPM_P1;HPM_P2
2022/11/12 00:00:40;;;;;;;;;;;;;;;20.98;30.17;99206.75;5057500;28;940;-76
2022/11/12 00:03:24;;;;;;;;;;;;;;;20.57;30.57;99203.66;5056460;28;1006;-76
2022/11/12 00:06:08;;;;;;;;;;;;;;;20.70;30.63;99202.03;5057414;28;896;-76
2022/11/12 00:08:52;;;;;;;;;;;;;;;20.75;29.91;99193.91;5042139;28;979;-76
2022/11/12 00:11:36;;;;;;;;;;;;;;;20.51;31.21;99194.81;5057280;28;1016;-76
2022/11/12 00:14:20;;;;;;;;;;;;;;;20.92;30.51;99194.25;5057311;28;904;-75
2022/11/12 00:17:04;;;;;;;;;;;;;;;21.22;29.55;99188.00;5056080;28;843;-76
2022/11/12 00:19:48;;;;;;;;;;;;;;;20.59;30.38;99185.09;5057143;28;1910;-76
2022/11/12 00:22:31;;;;;;;;;;;;;;;20.50;30.35;99187.53;5056135;28;922;-75
2022/11/12 00:25:15;;;;;;;;;;;;;;;20.55;30.45;99184.28;5057022;28;898;-76
2022/11/12 00:28:03;;;;;;;;;;;;;;;20.74;30.87;99180.19;5057054;28;944;-76
2022/11/12 00:30:47;;;;;;;;;;;;;;;21.00;30.08;99178.84;5057020;28;910;-76
2022/11/12 00:33:31;;;;;;;;;;;;;;;20.74;30.12;99183.81;5056774;28;904;-76
2022/11/12 00:36:15;;;;;;;;;;;;;;;20.61;30.66;99185.47;5055801;28;989;-76
2022/11/12 00:38:58;;;;;;;;;;;;;;;20.72;30.45;99189.06;5055731;28;1898;-76
2022/11/12 00:41:42;;;;;;;;;;;;;;;20.83;30.57;99188.22;5056183;28;929;-76
2022/11/12 00:44:28;;;;;;;;;;;;;;;21.11;30.08;99182.41;5056603;28;926;-76
2022/11/12 00:47:12;;;;;;;;;;;;;;;20.59;30.60;99173.78;5056559;28;919;-76
2022/11/12 00:49:56;;;;;;;;;;;;;;;20.48;30.82;99173.03;5056579;28;922;-76
2022/11/12 00:52:40;;;;;;;;;;;;;;;20.50;30.77;99176.25;5056387;28;894;-76
2022/11/12 00:55:23;;;;;;;;;;;;;;;20.73;30.71;99173.72;5056373;28;870;-76
2022/11/12 00:58:07;;;;;;;;;;;;;;;20.72;30.85;99172.09;5056388;28;1982;-76
2022/11/12 01:00:51;;;;;;;;;;;;;;;20.85;30.53;99163.16;5056326;28;879;-76
2022/11/12 01:03:36;;;;;;;;;;;;;;;20.64;30.46;99150.75;5056258;28;930;-76
2022/11/12 01:06:20;;;;;;;;;;;;;;;20.94;30.20;99161.50;5056210;28;900;-76
2022/11/12 01:09:04;;;;;;;;;;;;;;;21.05;30.59;99155.78;5055142;28;911;-76
2022/11/12 01:11:48;;;;;;;;;;;;;;;20.90;30.82;99159.91;5056161;28;919;-76
2022/11/12 01:14:32;;;;;;;;;;;;;;;21.26;30.08;99160.50;5055944;28;936;-76
2022/11/12 01:17:16;;;;;;;;;;;;;;;20.65;30.72;99160.03;5055939;28;975;-76
2022/11/12 01:20:00;;;;;;;;;;;;;;;20.91;30.20;99162.31;5055968;28;1909;-76
2022/11/12 01:22:44;;;;;;;;;;;;;;;20.70;30.58;99174.53;5056045;28;1007;-76
2022/11/12 01:25:28;;;;;;;;;;;;;;;20.93;31.07;99182.50;5055799;28;961;-75
2022/11/12 01:28:12;;;;;;;;;;;;;;;20.96;30.86;99175.22;5055927;28;945;-76
2022/11/12 01:30:56;;;;;;;;;;;;;;;21.09;30.51;99176.38;5055859;28;926;-76
2022/11/12 01:33:40;;;;;;;;;;;;;;;20.65;31.15;99177.00;5053999;28;958;-76
2022/11/12 01:36:25;;;;;;;;;;;;;;;20.53;30.91;99181.09;5055683;28;1013;-76
2022/11/12 01:39:09;;;;;;;;;;;;;;;20.45;31.15;99171.78;5054563;28;1899;-76
2022/11/12 01:41:53;;;;;;;;;;;;;;;21.23;30.43;99179.09;5055565;28;849;-76
2022/11/12 01:44:37;;;;;;;;;;;;;;;21.17;30.10;99179.97;5055509;28;896;-76
2022/11/12 01:47:26;;;;;;;;;;;;;;;20.66;30.85;99173.75;5055542;28;996;-76
2022/11/12 01:50:19;;;;;;;;;;;;;;;20.61;30.58;99170.53;5054626;28;942;-76
2022/11/12 01:53:04;;;;;;;;;;;;;;;20.65;30.52;99171.34;5053596;28;939;-76
2022/11/12 01:55:48;;;;;;;;;;;;;;;20.98;30.91;99173.59;5055585;28;965;-76
2022/11/12 01:58:32;;;;;;;;;;;;;;;20.92;30.62;99174.44;5055400;28;1906;-76
2022/11/12 02:01:16;;;;;;;;;;;;;;;20.90;30.54;99171.22;5054283;28;909;-76
2022/11/12 02:04:00;;;;;;;;;;;;;;;20.73;30.50;99168.06;5053711;28;1041;-76
2022/11/12 02:06:44;;;;;;;;;;;;;;;20.90;30.30;99166.38;5055396;28;895;-76
2022/11/12 02:09:28;;;;;;;;;;;;;;;20.84;31.05;99167.22;5054312;28;1198;-76
2022/11/12 02:13:56;;;;;;;;;;;;;;;20.97;30.76;99176.84;5055240;28;916;-76
2022/11/12 02:15:16;;;;;;;;;;;;;;;21.11;30.13;99165.44;5055225;28;943;-77
2022/11/12 02:18:00;;;;;;;;;;;;;;;20.95;30.15;99177.25;5055124;28;1953;-76
2022/11/12 02:20:44;;;;;;;;;;;;;;;20.90;30.00;99183.34;5054178;28;972;-76
2022/11/12 02:23:28;;;;;;;;;;;;;;;20.59;30.63;99179.44;5055093;28;931;-76
2022/11/12 02:26:12;;;;;;;;;;;;;;;20.78;31.29;99170.47;5055144;28;879;-76
2022/11/12 02:28:56;;;;;;;;;;;;;;;20.89;30.89;99163.97;5055221;28;842;-76
2022/11/12 02:31:39;;;;;;;;;;;;;;;21.12;30.07;99184.03;5055129;28;902;-74
2022/11/12 02:34:23;;;;;;;;;;;;;;;20.72;30.54;99179.78;5055104;28;949;-74
2022/11/12 02:37:07;;;;;;;;;;;;;;;20.77;30.52;99174.50;5055369;28;1114;-74
2022/11/12 02:39:51;;;;;;;;;;;;;;;21.05;30.38;99181.25;5055009;28;1906;-74
2022/11/12 02:42:35;;;;;;;;;;;;;;;21.17;30.19;99186.41;5054961;28;908;-74
2022/11/12 02:45:19;;;;;;;;;;;;;;;21.17;30.18;99179.97;5054896;28;1021;-74
2022/11/12 02:48:04;;;;;;;;;;;;;;;20.79;30.27;99182.59;5032804;28;976;-74
2022/11/12 02:50:47;;;;;;;;;;;;;;;20.53;30.73;99181.09;5032798;28;957;-74
2022/11/12 02:53:32;;;;;;;;;;;;;;;20.66;30.34;99190.72;5032662;28;885;-74
2022/11/12 02:56:15;;;;;;;;;;;;;;;21.04;30.31;99188.94;5032785;28;938;-74
2022/11/12 02:58:59;;;;;;;;;;;;;;;20.95;30.37;99187.78;5032682;28;1989;-74
2022/11/12 03:01:43;;;;;;;;;;;;;;;20.67;30.63;99188.69;5018534;28;934;-74
2022/11/12 03:04:27;;;;;;;;;;;;;;;20.51;30.74;99189.97;5034763;28;1032;-74
2022/11/12 03:07:11;;;;;;;;;;;;;;;20.43;31.08;99182.69;5036200;28;985;-74
2022/11/12 03:09:55;;;;;;;;;;;;;;;20.66;31.14;99185.06;5036162;28;1059;-74
2022/11/12 03:12:39;;;;;;;;;;;;;;;21.07;30.69;99192.94;5036343;28;953;-74
2022/11/12 03:15:23;;;;;;;;;;;;;;;21.02;30.60;99184.91;5036315;28;980;-74
2022/11/12 03:18:06;;;;;;;;;;;;;;;21.11;30.13;99182.41;5040970;28;2032;-74
2022/11/12 03:20:51;;;;;;;;;;;;;;;20.63;30.86;99177.41;5058237;28;991;-74
2022/11/12 03:23:34;;;;;;;;;;;;;;;20.68;30.73;99182.66;5057160;28;972;-74
2022/11/12 03:26:18;;;;;;;;;;;;;;;20.78;30.67;99176.13;5058362;28;946;-74
2022/11/12 03:29:02;;;;;;;;;;;;;;;21.23;30.49;99178.28;5058034;28;899;-74
2022/11/12 03:31:46;;;;;;;;;;;;;;;21.26;30.40;99166.97;5058479;28;986;-74
2022/11/12 03:34:30;;;;;;;;;;;;;;;20.86;30.49;99170.44;5058018;28;991;-74
2022/11/12 03:37:14;;;;;;;;;;;;;;;20.54;31.20;99177.03;5057967;28;890;-74
2022/11/12 03:39:58;;;;;;;;;;;;;;;20.58;30.75;99179.88;5056189;28;1906;-74
2022/11/12 03:42:45;;;;;;;;;;;;;;;20.66;31.26;99178.59;5057821;28;958;-74
2022/11/12 03:45:29;;;;;;;;;;;;;;;21.05;30.44;99182.06;5042620;28;851;-74
2022/11/12 03:48:13;;;;;;;;;;;;;;;20.96;30.41;99178.06;5058100;28;995;-74
2022/11/12 03:50:57;;;;;;;;;;;;;;;20.95;30.47;99170.78;5057719;28;924;-74
2022/11/12 03:53:42;;;;;;;;;;;;;;;20.47;31.02;99177.06;5056631;28;981;-74
2022/11/12 03:56:25;;;;;;;;;;;;;;;20.81;31.58;99180.94;5057663;28;873;-74
2022/11/12 03:59:09;;;;;;;;;;;;;;;21.00;31.02;99190.16;5057223;28;1969;-74
2022/11/12 04:01:53;;;;;;;;;;;;;;;21.02;31.03;99184.91;5057655;28;1149;-74
2022/11/12 04:10:43;;;;;;;;;;;;;;;20.58;31.13;99200.47;5057218;28;958;-74
2022/11/12 04:13:27;;;;;;;;;;;;;;;20.63;31.68;99208.53;5057181;28;984;-74
2022/11/12 04:22:17;;;;;;;;;;;;;;;20.61;31.25;99216.59;5057139;28;964;-74
2022/11/12 04:28:04;;;;;;;;;;;;;;;21.00;30.46;99210.78;5055450;28;972;-74
2022/11/12 04:30:48;;;;;;;;;;;;;;;21.00;30.56;99221.28;5041972;28;988;-74
2022/11/12 04:33:32;;;;;;;;;;;;;;;20.79;30.95;99225.81;5056911;28;977;-74
2022/11/12 04:36:16;;;;;;;;;;;;;;;20.67;30.90;99214.13;5055766;28;1070;-74
2022/11/12 04:39:00;;;;;;;;;;;;;;;21.00;30.85;99215.63;5056732;28;1973;-75
2022/11/12 04:44:59;;;;;;;;;;;;;;;20.96;30.81;99226.16;5056920;28;903;-75
2022/11/12 04:47:44;;;;;;;;;;;;;;;20.71;30.61;99227.06;5055698;28;964;-75
2022/11/12 04:50:28;;;;;;;;;;;;;;;20.54;31.04;99234.38;5056807;28;903;-75
2022/11/12 04:53:12;;;;;;;;;;;;;;;20.76;31.35;99235.13;5056537;28;903;-75
2022/11/12 04:55:56;;;;;;;;;;;;;;;21.17;30.16;99247.88;5055488;28;924;-75
2022/11/12 04:58:40;;;;;;;;;;;;;;;21.17;30.12;99243.03;5034285;28;1964;-75
2022/11/12 05:01:24;;;;;;;;;;;;;;;20.74;30.56;99254.53;5034071;28;1133;-75
2022/11/12 05:04:08;;;;;;;;;;;;;;;20.51;31.07;99246.50;5034003;28;898;-75
2022/11/12 05:06:53;;;;;;;;;;;;;;;20.67;30.87;99253.75;5033904;28;972;-75
2022/11/12 05:09:37;;;;;;;;;;;;;;;21.06;30.51;99247.94;5019945;28;976;-75
2022/11/12 05:12:21;;;;;;;;;;;;;;;20.94;30.58;99246.38;5034000;28;950;-75
2022/11/12 05:15:05;;;;;;;;;;;;;;;20.62;30.76;99240.81;5033784;28;988;-75
2022/11/12 05:17:49;;;;;;;;;;;;;;;20.76;30.60;99240.78;5019997;28;998;-75
2022/11/12 05:20:33;;;;;;;;;;;;;;;20.68;30.32;99239.22;5033655;28;1014;-75
2022/11/12 05:23:17;;;;;;;;;;;;;;;20.75;31.04;99244.84;5019706;28;1071;-75
2022/11/12 05:26:01;;;;;;;;;;;;;;;21.08;30.15;99239.84;5033844;28;971;-75
2022/11/12 05:28:45;;;;;;;;;;;;;;;20.93;30.53;99243.94;5038925;28;961;-75
2022/11/12 05:31:29;;;;;;;;;;;;;;;20.78;30.29;99244.03;5055844;28;907;-75
2022/11/12 05:34:13;;;;;;;;;;;;;;;20.36;31.19;99266.69;5054865;28;951;-75
2022/11/12 05:36:58;;;;;;;;;;;;;;;20.60;31.37;99265.06;5055645;28;1028;-75
2022/11/12 05:39:42;;;;;;;;;;;;;;;21.13;30.17;99273.38;5055660;28;1959;-75
2022/11/12 05:42:26;;;;;;;;;;;;;;;21.11;29.96;99278.66;5055641;28;913;-75
2022/11/12 05:45:10;;;;;;;;;;;;;;;20.76;30.19;99273.91;5055683;28;977;-75
2022/11/12 05:47:54;;;;;;;;;;;;;;;20.54;30.42;99267.53;5055680;28;973;-75
2022/11/12 05:50:38;;;;;;;;;;;;;;;20.66;30.18;99269.91;5055543;28;849;-75
2022/11/12 05:53:21;;;;;;;;;;;;;;;20.68;31.08;99278.81;5055435;28;904;-75
2022/11/12 05:56:06;;;;;;;;;;;;;;;20.98;30.20;99274.66;5055543;28;936;-75
2022/11/12 05:58:49;;;;;;;;;;;;;;;20.70;30.49;99286.88;5055192;28;1902;-75
2022/11/12 06:01:34;;;;;;;;;;;;;;;20.46;30.72;99277.19;5055410;28;938;-75
2022/11/12 06:04:18;;;;;;;;;;;;;;;20.55;30.62;99286.91;5055307;28;1018;-75
2022/11/12 06:07:02;;;;;;;;;;;;;;;21.01;30.39;99290.81;5055079;28;966;-75
2022/11/12 06:09:46;;;;;;;;;;;;;;;20.96;30.63;99285.56;5055207;28;1001;-75
2022/11/12 06:12:30;;;;;;;;;;;;;;;20.92;30.70;99305.38;5055280;28;918;-75
2022/11/12 06:15:14;;;;;;;;;;;;;;;20.52;31.11;99299.03;5055248;28;854;-75
2022/11/12 06:17:58;;;;;;;;;;;;;;;20.40;30.89;99305.06;5055315;28;934;-75
2022/11/12 06:20:42;;;;;;;;;;;;;;;20.69;31.46;99302.22;5055225;28;990;-75
2022/11/12 06:23:26;;;;;;;;;;;;;;;20.72;30.96;99296.53;5055177;28;986;-75
2022/11/12 06:26:10;;;;;;;;;;;;;;;21.05;30.42;99294.44;5055259;28;976;-75
2022/11/12 06:28:54;;;;;;;;;;;;;;;20.70;30.80;99299.00;5054998;28;983;-75
2022/11/12 06:31:39;;;;;;;;;;;;;;;20.62;30.95;99305.84;5055083;28;920;-75
2022/11/12 06:34:23;;;;;;;;;;;;;;;20.53;30.86;99311.16;5054970;28;973;-75
2022/11/12 06:37:06;;;;;;;;;;;;;;;20.86;31.26;99317.53;5054795;28;1209;-75
2022/11/12 06:39:50;;;;;;;;;;;;;;;21.06;30.68;99311.00;5042862;28;1980;-75
2022/11/12 06:42:34;;;;;;;;;;;;;;;20.88;30.92;99317.91;5058998;28;985;-75
2022/11/12 06:45:18;;;;;;;;;;;;;;;20.53;31.35;99316.81;5058990;28;1002;-75
2022/11/12 06:48:02;;;;;;;;;;;;;;;20.63;30.89;99320.84;5059453;28;896;-75
2022/11/12 06:50:46;;;;;;;;;;;;;;;20.91;31.59;99326.41;5057746;28;945;-75
2022/11/12 06:53:30;;;;;;;;;;;;;;;20.78;31.38;99328.88;5058844;28;943;-75
2022/11/12 06:56:14;;;;;;;;;;;;;;;21.19;30.74;99314.22;5058784;28;909;-75
2022/11/12 06:58:59;;;;;;;;;;;;;;;20.69;31.24;99319.19;5057495;28;1898;-75
2022/11/12 07:01:43;;;;;;;;;;;;;;;20.47;31.71;99329.75;5057719;28;920;-75
2022/11/12 07:04:26;;;;;;;;;;;;;;;20.37;31.68;99336.19;5057569;28;904;-75
2022/11/12 07:07:10;;;;;;;;;;;;;;;20.84;32.28;99326.44;5057562;28;882;-75
2022/11/12 07:09:54;;;;;;;;;;;;;;;20.95;31.74;99330.03;5058485;28;936;-75
2022/11/12 07:12:38;;;;;;;;;;;;;;;21.05;31.63;99320.72;5058412;28;938;-75
2022/11/12 07:15:22;;;;;;;;;;;;;;;20.79;31.81;99324.84;5058388;28;978;-75
2022/11/12 07:18:06;;;;;;;;;;;;;;;20.65;32.02;99319.19;5056488;28;1073;-75
2022/11/12 07:20:50;;;;;;;;;;;;;;;20.70;31.72;99332.94;5058506;28;897;-75
2022/11/12 07:23:34;;;;;;;;;;;;;;;21.01;31.84;99333.25;5058262;28;1009;-75
2022/11/12 07:26:19;;;;;;;;;;;;;;;21.08;31.81;99338.88;5035554;28;947;-75
2022/11/12 07:29:06;;;;;;;;;;;;;;;20.71;31.95;99323.22;5022023;28;929;-75
2022/11/12 07:31:50;;;;;;;;;;;;;;;20.70;31.62;99330.09;5022105;28;986;-75
2022/11/12 07:34:34;;;;;;;;;;;;;;;20.70;31.73;99338.59;5035582;28;930;-75
2022/11/12 07:37:18;;;;;;;;;;;;;;;20.67;31.49;99333.72;5021833;28;960;-75
2022/11/12 07:40:02;;;;;;;;;;;;;;;20.65;32.74;99336.16;5035565;28;1918;-75
2022/11/12 07:42:46;;;;;;;;;;;;;;;21.04;31.87;99346.59;5035596;28;937;-75
2022/11/12 07:45:30;;;;;;;;;;;;;;;20.69;32.20;99348.28;5035532;28;1012;-75
2022/11/12 07:48:14;;;;;;;;;;;;;;;20.99;31.63;99349.84;5035508;28;1015;-75
2022/11/12 07:51:10;;;;;;;;;;;;;;;20.74;31.85;99347.88;5034068;28;976;-75
2022/11/12 07:53:55;;;;;;;;;;;;;;;20.87;32.14;99359.56;5021573;28;968;-75
2022/11/12 07:56:39;;;;;;;;;;;;;;;21.02;31.83;99361.13;5048889;28;957;-75
2022/11/12 07:59:23;;;;;;;;;;;;;;;20.69;31.86;99359.59;5060985;28;1963;-75
2022/11/12 08:02:08;;;;;;;;;;;;;;;20.61;32.06;99363.63;5075452;28;891;-75
2022/11/12 08:04:52;;;;;;;;;;;;;;;20.67;31.68;99359.19;5075113;28;935;-75
2022/11/12 08:07:36;;;;;;;;;;;;;;;20.75;32.49;99357.97;5075087;28;911;-74
2022/11/12 08:10:20;;;;;;;;;;;;;;;21.05;31.93;99365.19;5074981;28;914;-75
2022/11/12 08:13:04;;;;;;;;;;;;;;;20.70;32.10;99366.06;5074972;28;953;-75
2022/11/12 08:15:48;;;;;;;;;;;;;;;20.81;31.84;99372.50;5074939;28;965;-75
2022/11/12 08:18:33;;;;;;;;;;;;;;;20.63;31.75;99372.53;5074796;28;1902;-75
2022/11/12 08:21:17;;;;;;;;;;;;;;;20.58;31.71;99381.44;5074819;28;1009;-75
2022/11/12 08:24:01;;;;;;;;;;;;;;;20.70;32.97;99386.66;5060958;28;850;-75
2022/11/12 08:26:45;;;;;;;;;;;;;;;20.92;31.99;99376.13;5070721;28;952;-75
2022/11/12 08:29:28;;;;;;;;;;;;;;;20.98;32.05;99380.16;5055969;28;951;-75
2022/11/12 08:32:13;;;;;;;;;;;;;;;20.60;32.69;99384.66;5056921;28;949;-75
2022/11/12 08:34:57;;;;;;;;;;;;;;;20.50;32.39;99385.47;5055891;28;1000;-75
2022/11/12 08:37:41;;;;;;;;;;;;;;;20.51;32.49;99387.06;5057070;28;953;-75
2022/11/12 08:40:26;;;;;;;;;;;;;;;20.90;32.28;99380.59;5056887;28;1902;-75
2022/11/12 08:43:10;;;;;;;;;;;;;;;21.01;31.87;99387.03;5055764;28;927;-75
2022/11/12 08:45:56;;;;;;;;;;;;;;;20.81;32.02;99378.97;5056704;28;877;-75
2022/11/12 08:48:40;;;;;;;;;;;;;;;20.62;32.24;99381.41;5056513;28;898;-75
2022/11/12 08:51:24;;;;;;;;;;;;;;;20.62;32.19;99390.69;5056525;28;936;-75
2022/11/12 08:54:08;;;;;;;;;;;;;;;20.83;32.96;99387.06;5055363;28;935;-75
2022/11/12 08:56:51;;;;;;;;;;;;;;;20.97;32.21;99380.56;5055717;28;954;-75
2022/11/12 08:59:35;;;;;;;;;;;;;;;20.90;32.21;99389.88;5056316;28;1961;-75
2022/11/12 09:02:21;;;;;;;;;;;;;;;20.68;32.36;99391.94;5055881;28;978;-75
2022/11/12 09:05:04;;;;;;;;;;;;;;;20.60;32.10;99386.69;5056779;28;843;-75
2022/11/12 09:07:55;;;;;;;;;;;;;;;20.99;32.77;99389.47;5056245;28;868;-75
2022/11/12 09:10:39;;;;;;;;;;;;;;;21.17;32.02;99383.75;5056193;28;833;-75
2022/11/12 09:13:23;;;;;;;;;;;;;;;20.79;32.29;99384.25;5056101;28;987;-74
2022/11/12 09:16:08;;;;;;;;;;;;;;;19.39;32.54;99161.41;5056130;28;977;-75
2022/11/12 09:18:51;;;;;;;;;;;;;;;20.68;32.00;99374.16;5055227;28;1981;-75
2022/11/12 09:21:35;;;;;;;;;;;;;;;20.62;32.29;99370.91;5054982;28;932;-75
2022/11/12 09:24:19;;;;;;;;;;;;;;;20.55;32.47;99359.59;5055874;28;926;-75
2022/11/12 09:27:03;;;;;;;;;;;;;;;20.83;33.36;99355.13;5056231;28;941;-75
2022/11/12 09:29:47;;;;;;;;;;;;;;;21.05;32.29;99354.69;5055872;28;845;-75
2022/11/12 09:32:31;;;;;;;;;;;;;;;20.89;32.39;99347.84;5055781;28;916;-75
2022/11/12 09:35:15;;;;;;;;;;;;;;;20.75;32.35;99341.00;5054684;28;1203;-75
2022/11/12 09:37:59;;;;;;;;;;;;;;;20.60;32.46;99350.72;5055756;28;850;-75
2022/11/12 09:40:43;;;;;;;;;;;;;;;20.64;32.73;99345.88;5055597;28;876;-75
2022/11/12 09:43:30;;;;;;;;;;;;;;;21.01;32.36;99338.91;5037078;28;1358;-75
2022/11/12 09:46:23;;;;;;;;;;;;;;;21.20;31.78;99346.94;5054243;28;974;-75
2022/11/12 09:49:07;;;;;;;;;;;;;;;20.48;33.03;99359.63;5055281;28;956;-75
2022/11/12 09:51:54;;;;;;;;;;;;;;;20.47;32.64;99358.00;5054318;28;984;-75
2022/11/12 09:54:38;;;;;;;;;;;;;;;20.49;32.71;99366.88;5054031;28;903;-75
2022/11/12 09:57:22;;;;;;;;;;;;;;;20.51;32.50;99368.09;5054195;28;917;-75
2022/11/12 10:00:13;;;;;;;;;;;;;;;20.90;32.91;99369.28;5053352;28;1883;-75
2022/11/12 10:03:00;;;;;;;;;;;;;;;20.91;32.88;99376.53;5032599;28;1038;-75
2022/11/12 10:05:47;;;;;;;;;;;;;;;20.90;32.71;99364.41;5019162;28;964;-75
2022/11/12 10:08:45;;;;;;;;;;;;;;;20.74;32.66;99362.03;5032672;28;903;-75
2022/11/12 10:18:12;;;;;;;;;;;;;;;21.01;32.73;99376.50;5012988;28;1003;-74
2022/11/12 10:21:05;;;;;;;;;;;;;;;20.97;32.40;99380.56;5012845;28;966;-75
2022/11/12 10:23:51;;;;;;;;;;;;;;;20.89;32.60;99387.47;5013133;28;937;-75
2022/11/12 10:26:34;;;;;;;;;;;;;;;20.73;32.38;99383.03;4973701;28;1109;-75
2022/11/12 10:29:25;;;;;;;;;;;;;;;20.81;32.46;99389.47;4959878;28;892;-75
2022/11/12 10:32:10;;;;;;;;;;;;;;;21.03;32.58;99388.22;4973660;28;955;-76
2022/11/12 10:34:54;;;;;;;;;;;;;;;21.13;32.19;99388.59;4978942;28;1155;-75
2022/11/12 10:37:38;;;;;;;;;;;;;;;21.30;32.10;99387.78;4993245;28;988;-75
2022/11/12 10:40:29;;;;;;;;;;;;;;;20.81;32.81;99390.28;5004548;28;1989;-75
2022/11/12 10:43:16;;;;;;;;;;;;;;;20.75;32.28;99389.09;5032242;28;979;-75
2022/11/12 10:46:11;;;;;;;;;;;;;;;20.64;32.42;99391.13;5032242;28;946;-75
2022/11/12 10:49:16;;;;;;;;;;;;;;;20.83;31.98;99392.72;5018480;28;972;-75
2022/11/12 10:52:00;;;;;;;;;;;;;;;20.94;31.98;99392.72;4992995;28;1098;-75
2022/11/12 10:54:44;;;;;;;;;;;;;;;20.90;33.12;99391.91;4992903;28;1044;-75
2022/11/12 10:57:28;;;;;;;;;;;;;;;21.27;32.16;99383.72;5003991;28;1041;-75
2022/11/12 11:00:12;;;;;;;;;;;;;;;20.64;33.29;99391.13;5012337;28;1981;-75
2022/11/12 11:02:56;;;;;;;;;;;;;;;20.75;32.89;99382.63;5012274;28;992;-75
2022/11/12 11:05:54;;;;;;;;;;;;;;;20.38;32.86;99337.78;5012637;28;957;-75
2022/11/12 11:08:39;;;;;;;;;;;;;;;20.77;32.89;99378.16;5012436;28;1059;-75
2022/11/12 11:11:24;;;;;;;;;;;;;;;21.15;32.48;99387.00;5012463;28;1031;-75
2022/11/12 11:14:22;;;;;;;;;;;;;;;20.98;32.81;99382.16;5001084;28;921;-75
2022/11/12 11:17:11;;;;;;;;;;;;;;;20.73;33.24;99388.69;5006724;28;1063;-75
2022/11/12 11:19:55;;;;;;;;;;;;;;;20.69;32.83;99382.22;4992740;28;1966;-75
2022/11/12 11:22:43;;;;;;;;;;;;;;;20.55;33.26;99376.56;4992685;28;1033;-75
2022/11/12 11:25:27;;;;;;;;;;;;;;;20.83;33.43;99367.28;5008125;28;1048;-75
2022/11/12 11:28:22;;;;;;;;;;;;;;;21.26;32.59;99376.44;5019640;28;1051;-75
2022/11/12 11:31:17;;;;;;;;;;;;;;;20.71;33.19;99385.44;5036883;28;1015;-75
2022/11/12 11:34:09;;;;;;;;;;;;;;;20.93;32.44;99385.41;5036721;28;977;-75
2022/11/12 11:37:00;;;;;;;;;;;;;;;20.38;33.44;99383.81;5036848;28;1004;-75
2022/11/12 11:39:44;;;;;;;;;;;;;;;20.64;33.55;99385.47;5036633;28;1902;-75
2022/11/12 11:42:31;;;;;;;;;;;;;;;21.05;33.02;99376.50;5037694;28;940;-75
2022/11/12 11:45:16;;;;;;;;;;;;;;;21.03;32.71;99384.59;5037484;28;879;-75
2022/11/12 11:48:05;;;;;;;;;;;;;;;20.71;33.12;99384.63;5036729;28;1023;-75
2022/11/12 11:51:02;;;;;;;;;;;;;;;20.55;33.33;99383.03;5036376;28;913;-75
2022/11/12 11:53:59;;;;;;;;;;;;;;;20.63;33.37;99395.16;5036529;28;942;-74
2022/11/12 11:56:43;;;;;;;;;;;;;;;21.04;33.10;99380.56;5037418;28;965;-75
2022/11/12 11:59:27;;;;;;;;;;;;;;;21.36;32.36;99376.84;5037193;28;1910;-75
2022/11/12 12:02:29;;;;;;;;;;;;;;;20.72;32.95;99364.44;5036263;28;966;-75
2022/11/12 12:05:32;;;;;;;;;;;;;;;20.69;32.89;99376.56;5037398;28;993;-75
2022/11/12 12:08:23;;;;;;;;;;;;;;;20.38;33.44;99377.38;5037283;28;979;-75
2022/11/12 12:11:20;;;;;;;;;;;;;;;20.77;33.27;99389.47;5036140;28;978;-75
2022/11/12 12:14:19;;;;;;;;;;;;;;;20.93;33.59;99391.06;5036362;28;932;-75
2022/11/12 12:17:16;;;;;;;;;;;;;;;21.05;33.32;99390.66;5036118;28;956;-75
2022/11/12 12:20:07;;;;;;;;;;;;;;;20.68;33.31;99391.94;5037678;28;1975;-75
2022/11/12 12:23:17;;;;;;;;;;;;;;;20.55;33.73;99397.19;5035857;28;888;-75
2022/11/12 12:26:02;;;;;;;;;;;;;;;20.58;33.52;99404.06;5054451;28;1074;-75
2022/11/12 12:28:53;;;;;;;;;;;;;;;21.08;33.00;99403.97;5068984;28;942;-75
2022/11/12 12:31:39;;;;;;;;;;;;;;;21.07;32.91;99396.72;5054304;28;1037;-75
2022/11/12 12:34:32;;;;;;;;;;;;;;;21.23;32.76;99405.56;5068657;28;951;-75
2022/11/12 12:37:27;;;;;;;;;;;;;;;20.90;32.98;99414.53;5067872;28;1020;-75
2022/11/12 12:40:11;;;;;;;;;;;;;;;20.71;32.91;99402.41;5068520;28;1985;-75
2022/11/12 12:42:58;;;;;;;;;;;;;;;20.76;33.10;99407.66;5054196;28;1018;-75
2022/11/12 12:45:43;;;;;;;;;;;;;;;20.43;33.46;99405.22;5054287;28;971;-75
2022/11/12 12:48:31;;;;;;;;;;;;;;;20.96;33.50;99408.06;5068210;28;1062;-75
2022/11/12 12:51:15;;;;;;;;;;;;;;;21.17;32.83;99398.69;5054146;28;952;-75
2022/11/12 12:53:59;;;;;;;;;;;;;;;20.79;33.37;99409.69;5053985;28;846;-75
2022/11/12 12:56:44;;;;;;;;;;;;;;;20.76;33.10;99407.66;5053949;28;984;-75
2022/11/12 12:59:28;;;;;;;;;;;;;;;20.45;33.42;99416.94;5067877;28;1973;-75
2022/11/12 13:02:18;;;;;;;;;;;;;;;20.58;33.23;99406.88;5063004;28;978;-75
2022/11/12 13:05:02;;;;;;;;;;;;;;;20.53;33.31;99412.94;5035279;28;886;-75
2022/11/12 13:07:46;;;;;;;;;;;;;;;20.84;33.84;99413.34;5035991;28;925;-75
2022/11/12 13:10:46;;;;;;;;;;;;;;;20.89;33.25;99413.72;5034968;28;985;-75
2022/11/12 13:13:33;;;;;;;;;;;;;;;20.75;33.28;99417.38;5036350;28;964;-75
2022/11/12 13:16:36;;;;;;;;;;;;;;;20.58;33.51;99417.38;5034824;28;930;-75
2022/11/12 13:19:41;;;;;;;;;;;;;;;20.52;33.50;99411.31;5035853;28;1910;-74
2022/11/12 13:22:24;;;;;;;;;;;;;;;20.80;33.27;99419.78;5053383;28;1586;-74
2022/11/12 13:25:15;;;;;;;;;;;;;;;21.04;33.37;99418.16;5053370;28;985;-75
2022/11/12 13:28:03;;;;;;;;;;;;;;;21.05;32.98;99416.13;5053221;28;1056;-75
2022/11/12 13:30:47;;;;;;;;;;;;;;;20.77;33.56;99411.31;5053084;28;948;-75
2022/11/12 13:33:32;;;;;;;;;;;;;;;20.46;33.45;99404.41;5053027;28;978;-75
2022/11/12 13:36:23;;;;;;;;;;;;;;;20.85;32.80;99400.81;5052940;28;1144;-75
2022/11/12 13:39:14;;;;;;;;;;;;;;;20.83;33.67;99408.88;5038829;28;1910;-75
2022/11/12 13:45:00;;;;;;;;;;;;;;;20.70;33.58;99400.81;5041329;28;967;-75
2022/11/12 13:47:44;;;;;;;;;;;;;;;20.84;33.25;99411.31;5052930;28;968;-75
2022/11/12 13:50:28;;;;;;;;;;;;;;;20.73;33.36;99397.19;5052933;28;1080;-74
2022/11/12 13:53:13;;;;;;;;;;;;;;;20.73;33.00;99400.00;5038747;28;986;-75
2022/11/12 13:55:58;;;;;;;;;;;;;;;20.98;33.32;99408.44;5052873;28;964;-75
2022/11/12 13:58:42;;;;;;;;;;;;;;;21.27;32.71;99412.03;5038760;28;1981;-75
2022/11/12 14:01:31;;;;;;;;;;;;;;;20.84;33.18;99410.50;5044538;28;996;-75
2022/11/12 14:04:16;;;;;;;;;;;;;;;20.71;33.30;99408.06;5034172;28;945;-75
2022/11/12 14:07:27;;;;;;;;;;;;;;;20.85;33.14;99406.47;5034951;28;975;-75
2022/11/12 14:10:29;;;;;;;;;;;;;;;20.58;33.44;99403.25;5052434;28;1058;-75
2022/11/12 14:13:21;;;;;;;;;;;;;;;21.05;33.10;99399.16;5052719;28;1020;-75
2022/11/12 14:16:12;;;;;;;;;;;;;;;21.24;32.96;99395.88;5052536;28;961;-74
2022/11/12 14:19:05;;;;;;;;;;;;;;;20.74;33.40;99404.44;5052447;28;1906;-75
2022/11/12 14:22:09;;;;;;;;;;;;;;;20.87;33.06;99398.34;5052460;28;1028;-75
2022/11/12 14:24:58;;;;;;;;;;;;;;;20.90;32.76;99397.56;5052477;28;1238;-75
2022/11/12 14:27:41;;;;;;;;;;;;;;;21.20;32.95;99395.06;5066663;28;908;-75
2022/11/12 14:30:28;;;;;;;;;;;;;;;21.11;33.27;99389.03;5052390;28;1005;-75
2022/11/12 14:33:16;;;;;;;;;;;;;;;21.03;33.24;99387.41;5052224;28;1025;-75
2022/11/12 14:36:04;;;;;;;;;;;;;;;20.87;33.41;99395.53;5038229;28;1002;-75
2022/11/12 14:38:50;;;;;;;;;;;;;;;20.72;33.15;99386.25;5012522;28;1980;-75
2022/11/12 14:41:34;;;;;;;;;;;;;;;20.45;33.38;99383.00;4998644;28;1033;-75
2022/11/12 14:44:19;;;;;;;;;;;;;;;20.94;34.00;99395.53;4998798;28;1088;-75
2022/11/12 14:47:03;;;;;;;;;;;;;;;21.14;32.98;99390.22;4998393;28;1029;-75
2022/11/12 14:49:47;;;;;;;;;;;;;;;20.73;33.42;99400.00;5012648;28;871;-75
2022/11/12 14:52:32;;;;;;;;;;;;;;;20.44;33.85;99404.81;5012553;28;1028;-75
2022/11/12 14:55:18;;;;;;;;;;;;;;;20.66;33.17;99404.84;4998666;28;984;-75
2022/11/12 14:58:02;;;;;;;;;;;;;;;20.92;32.70;99412.09;4998625;28;1019;-75
2022/11/12 15:00:47;;;;;;;;;;;;;;;20.67;33.61;99404.44;5000921;28;1982;-75
2022/11/12 15:03:31;;;;;;;;;;;;;;;21.16;33.08;99407.63;4995845;28;1046;-75
2022/11/12 15:06:19;;;;;;;;;;;;;;;21.12;33.21;99404.78;4996644;28;992;-75
2022/11/12 15:09:03;;;;;;;;;;;;;;;20.68;33.86;99403.25;5009059;28;933;-75
2022/11/12 15:11:47;;;;;;;;;;;;;;;20.68;33.42;99403.25;5038372;28;891;-75